HomeShort term forecast

Short term forecast

Graphical weather forecast for the next 48 hours for Montreal:
Short term forecast
This weather forecast is automatically refreshed every 3 hours.

Hourly Experimental Forecast for the next 48 hours

Overall summary: Foggy starting this evening.

 Date & Hour   Temp   Feel   Baro   Hum   Speed & Bearing   Precipitation   Visibility   Cloud cover   Conditions 
 17/01/2018 - 08:00  -11.2°C  -11.2°C  1028.5 hPa  89%  2.9 km/h   0.06 mm/h  7.4km  86%  Mostly Cloudy 
 17/01/2018 - 09:00  -11.0°C  -11.0°C  1028.4 hPa  86%  3.4 km/h   0.02 mm/h  5.1km  86%  Mostly Cloudy 
 17/01/2018 - 10:00  -10.7°C  -10.7°C  1027.9 hPa  84%  4.2 km/h   0.01 mm/h  4.4km  88%  Mostly Cloudy 
 17/01/2018 - 11:00  -9.8°C  -12.8°C  1026.9 hPa  80%  5.3 km/h   --  8.8km  91%  Mostly Cloudy 
 17/01/2018 - 12:00  -8.4°C  -12.0°C  1025.6 hPa  78%  6.5 km/h   0.01 mm/h  16.0km  96%  Overcast 
 17/01/2018 - 13:00  -7.2°C  -11.1°C  1024.4 hPa  76%  7.7 km/h   0.01 mm/h  16.1km  94%  Overcast 
 17/01/2018 - 14:00  -6.5°C  -10.5°C  1023.5 hPa  74%  8.4 km/h   0.01 mm/h  16.1km  80%  Mostly Cloudy 
 17/01/2018 - 15:00  -5.9°C  -10.0°C  1022.8 hPa  73%  9.0 km/h   --  13.8km  61%  Mostly Cloudy 
 17/01/2018 - 16:00  -6.0°C  -10.4°C  1022.1 hPa  74%  9.9 km/h   --  9.3km  49%  Partly Cloudy 
 17/01/2018 - 17:00  -6.9°C  -11.9°C  1021.5 hPa  75%  11.4 km/h   --  5.8km  55%  Partly Cloudy 
 17/01/2018 - 18:00  -8.5°C  -14.4°C  1020.9 hPa  79%  13.2 km/h   --  2.4km  68%  Foggy 
 17/01/2018 - 19:00  -9.8°C  -16.4°C  1020.3 hPa  83%  14.7 km/h   0.01 mm/h  0.1km  80%  Foggy 
 17/01/2018 - 20:00  -10.5°C  -17.5°C  1019.6 hPa  87%  15.5 km/h   0.01 mm/h  0.0km  84%  Foggy 
 17/01/2018 - 21:00  -10.7°C  -17.8°C  1018.8 hPa  90%  15.9 km/h   0.01 mm/h  0.4km  90%  Foggy 
 17/01/2018 - 22:00  -10.6°C  -17.8°C  1018.0 hPa  92%  16.4 km/h   0.01 mm/h  1.1km  94%  Foggy 
 17/01/2018 - 23:00  -10.3°C  -17.6°C  1017.2 hPa  91%  17.4 km/h   0.01 mm/h  1.2km  94%  Foggy 
 18/01/2018 - 00:00  -9.9°C  -17.4°C  1016.3 hPa  90%  18.4 km/h   0.01 mm/h  1.1km  92%  Foggy 
 18/01/2018 - 01:00  -9.6°C  -17.2°C  1015.4 hPa  90%  19.1 km/h   0.01 mm/h  1.1km  90%  Foggy 
 18/01/2018 - 02:00  -9.4°C  -16.8°C  1014.6 hPa  90%  18.9 km/h   0.01 mm/h  1.3km  88%  Foggy 
 18/01/2018 - 03:00  -9.0°C  -16.2°C  1013.9 hPa  88%  18.3 km/h   0.01 mm/h  1.4km  85%  Foggy 
 18/01/2018 - 04:00  -8.6°C  -15.6°C  1013.3 hPa  87%  17.8 km/h   0.01 mm/h  1.4km  84%  Foggy 
 18/01/2018 - 05:00  -8.2°C  -15.1°C  1012.9 hPa  86%  17.3 km/h   0.02 mm/h  0.9km  84%  Foggy 
 18/01/2018 - 06:00  -8.2°C  -14.9°C  1012.6 hPa  87%  16.9 km/h   0.02 mm/h  0.2km  87%  Foggy 
 18/01/2018 - 07:00  -8.2°C  -14.9°C  1012.5 hPa  89%  16.9 km/h   0.02 mm/h  0.2km  89%  Foggy 
 18/01/2018 - 08:00  -7.9°C  -14.8°C  1012.6 hPa  90%  17.9 km/h   0.01 mm/h  0.9km  92%  Foggy 
 18/01/2018 - 09:00  -7.3°C  -14.3°C  1012.9 hPa  88%  19.2 km/h   --  2.3km  95%  Foggy 
 18/01/2018 - 10:00  -6.3°C  -13.2°C  1013.0 hPa  84%  20.3 km/h   --  5.2km  98%  Overcast 
 18/01/2018 - 11:00  -5.2°C  -11.9°C  1012.7 hPa  81%  20.7 km/h   --  11.3km  98%  Overcast 
 18/01/2018 - 12:00  -4.1°C  -10.5°C  1012.2 hPa  78%  20.7 km/h   --  16.1km  97%  Overcast 
 18/01/2018 - 13:00  -3.3°C  -9.5°C  1011.8 hPa  76%  20.3 km/h   0.01 mm/h  16.1km  96%  Overcast 
 18/01/2018 - 14:00  -2.9°C  -8.8°C  1011.7 hPa  75%  19.2 km/h   0.01 mm/h  16.1km  89%  Mostly Cloudy 
 18/01/2018 - 15:00  -2.9°C  -8.5°C  1011.8 hPa  75%  17.6 km/h   0.01 mm/h  16.1km  80%  Mostly Cloudy 
 18/01/2018 - 16:00  -3.1°C  -8.4°C  1011.9 hPa  75%  16.4 km/h   0.01 mm/h  16.1km  75%  Mostly Cloudy 
 18/01/2018 - 17:00  -3.8°C  -9.2°C  1012.3 hPa  78%  15.8 km/h   0.01 mm/h  16.1km  80%  Mostly Cloudy 
 18/01/2018 - 18:00  -4.7°C  -10.3°C  1012.8 hPa  82%  15.8 km/h   0.01 mm/h  7.5km  90%  Mostly Cloudy 
 18/01/2018 - 19:00  -5.7°C  -11.6°C  1013.2 hPa  87%  15.5 km/h   0.01 mm/h  0.3km  97%  Foggy 
 18/01/2018 - 20:00  -6.6°C  -12.5°C  1013.4 hPa  90%  14.9 km/h   0.01 mm/h  0.3km  98%  Foggy 
 18/01/2018 - 21:00  -7.2°C  -13.1°C  1013.6 hPa  91%  14.1 km/h   0.02 mm/h  0.4km  98%  Foggy 
 18/01/2018 - 22:00  -7.7°C  -13.5°C  1013.8 hPa  91%  13.4 km/h   0.02 mm/h  1.0km  99%  Foggy 
 18/01/2018 - 23:00  -8.0°C  -13.7°C  1013.9 hPa  92%  12.8 km/h   0.01 mm/h  1.3km  99%  Foggy 
 19/01/2018 - 00:00  -8.3°C  -13.9°C  1014.1 hPa  93%  12.2 km/h   --  1.8km  100%  Foggy 
 19/01/2018 - 01:00  -8.5°C  -14.0°C  1014.2 hPa  94%  11.5 km/h   --  3.6km  99%  Overcast 
 19/01/2018 - 02:00  -8.7°C  -13.8°C  1014.1 hPa  93%  10.4 km/h   --  8.2km  96%  Overcast 
 19/01/2018 - 03:00  -8.6°C  -13.3°C  1014.0 hPa  90%  9.2 km/h   --  14.2km  91%  Mostly Cloudy 
 19/01/2018 - 04:00  -8.6°C  -12.9°C  1014.1 hPa  88%  8.2 km/h   --  16.1km  87%  Mostly Cloudy 
 19/01/2018 - 05:00  -8.7°C  -12.8°C  1014.5 hPa  87%  7.7 km/h   --  16.1km  86%  Mostly Cloudy 
 19/01/2018 - 06:00  -9.0°C  -13.1°C  1015.1 hPa  88%  7.6 km/h   0.01 mm/h  16.1km  85%  Mostly Cloudy 
 19/01/2018 - 07:00  -9.1°C  -13.3°C  1015.6 hPa  90%  7.7 km/h   0.01 mm/h  16.1km  81%  Mostly Cloudy 
Test

 

Past weather and reports

Past weatherFind in this section the past weather conditions, weather archive, graphics, reports and statistics.

Current conditions

Current weather condition for MontrealAll you need to know about the current weather conditions for Montreal. Weather data is updated every 10 minutes.

Weather forecast

Current Montreal weatherSince 2004, celinium.com website has provided accurate weather forecast for Montreal's island.